Cut Bank, MT (59427)

2:47 PM MDT on July 31, 2014 (GMT -0600)
Cut Bank Municipal (KCTB) Elev 3855 ft | 48.61 °N, 112.38 °W | Change Station

Current weather conditions updated 51 minutes ago

Scattered Clouds
Scattered Clouds
88 °F
Feels Like 88 °F
N
4
Wind Variable Wind from Variable

Today is forecast to be Cooler than yesterday.

Today
High -- | Low -- °F
--% Chance of Precip.
Yesterday
High -- | Low -- °F
Precip. -- in
6:02 AM 9:08 PM
Waxing Crescent, 21% visible
Pressure 30.02 in
Visibility 10.0 miles
Clouds Scattered Clouds 11000 ft
Dew Point 39 °F
Humidity 18%
Rainfall 0.00 in
Snow Depth Not available.
UV 8 out of 12
Pollen 2.20 out of 12
Air Quality Not available.
Flu Activity Not available.
METAR KCTB 311956Z AUTO VRB03KT 10SM SCT110 31/04 A3013 RMK AO2 LTG DSNT SW SLP164 T03110039

More Conditions Fewer Conditions

Pressure 30.02 in
Visibility 10.0 miles
Clouds Scattered Clouds 11000 ft
Dew Point 39 °F
Humidity 18%
Rainfall 0.00 in
Snow Depth Not available.
UV 8 out of 12
Pollen 2.20 out of 12
Air Quality Not available.
Flu Activity Not available.
METAR KCTB 311956Z AUTO VRB03KT 10SM SCT110 31/04 A3013 RMK AO2 LTG DSNT SW SLP164 T03110039

More Conditions Fewer Conditions

10-Day Weather Forecast

Almanac

Astronomy

Jul. 31, 2014 Rise Set
Actual Time 6:02 AM MDT 9:08 PM MDT
Civil Twilight 5:24 AM MDT 9:45 PM MDT
Nautical Twilight 4:36 AM MDT 10:33 PM MDT
Astronomical Twilight 3:35 AM MDT 11:33 PM MDT
Moon 10:59 AM MDT 10:54 PM MDT
Length of Visible Light 16h 20m
Length of Day
15h 06m
Tomorrow will be 2m 46s shorter.
Waxing Crescent, 21% of the Moon is Illuminated
Today
Waxing Crescent
Aug 3
First Quarter
Aug 10
Full
Aug 17
Last Quarter
Aug 25
New

Today's Extremes

State Highs State Lows

Community

WunderPhotos

Upload Photos

1,739,450 photos uploaded!

Nearby

Snow Depth

Station Depth Elevation
Waldron 0 in 5600 ft
Wood Creek 0 in 5960 ft
Combination 1 in 5600 ft
Tizer Basin 0 in 6840 ft
Crystal Lake 0 in 6050 ft

Earthquake Activity

City Distance Mag. Time & Date
No recent earthquake activity has been reported nearby.
Minimum magnitude displayed is 2.5.

Coastal Water Temperatures

Place Temperature
No Stations Reporting

Nearby Weather Stations

Station Location Temp. Heat Index Dew Point Humidity Wind Precip. Elev Updated Type
Provident, Cut Bank, MT 86.9 °F 83 °F 39 °F 18% WNW  at  7.0 mph 0.00 in / hr 3799 ft 2:42 PM MDT Normal
Dean, Valier, MT 88.4 °F 85 °F 40 °F 18% NNE  at  4.0 mph 0.00 in / hr 3655 ft 2:45 PM MDT Normal
Boguss, Kevin, MT 92.1 °F 88 °F 32 °F 12% NW  at  14.8 mph 0.00 in / hr 3340 ft 2:47 PM MDT Rapid Fire
Shelby, MT 90.5 °F 87 °F 40 °F 17% WSW  at  2.0 mph 0.00 in / hr 3328 ft 2:47 PM MDT Rapid Fire
HADS MARIAS RIVER NEAR SHELBY 6S MT, Shelby, MT 91 °F 87 °F - - North  at  - 0.00 in / hr 3087 ft 1:30 PM MDT MADIS

Show More Stations Show Fewer Stations